sensor_id;sensor_type;location;lat;lon;timestamp;P1;durP1;ratioP1;P2;durP2;ratioP2
15699;SDS011;7950;42.744;23.174;2022-10-17T00:02:13;13.20;;;8.60;;
15699;SDS011;7950;42.744;23.174;2022-10-17T00:04:41;10.67;;;7.67;;
15699;SDS011;7950;42.744;23.174;2022-10-17T00:07:10;12.43;;;8.10;;
15699;SDS011;7950;42.744;23.174;2022-10-17T00:09:41;13.63;;;8.20;;
15699;SDS011;7950;42.744;23.174;2022-10-17T00:12:13;9.83;;;7.90;;
15699;SDS011;7950;42.744;23.174;2022-10-17T00:14:43;9.20;;;8.03;;
15699;SDS011;7950;42.744;23.174;2022-10-17T00:20:05;9.93;;;7.40;;
15699;SDS011;7950;42.744;23.174;2022-10-17T00:22:35;13.10;;;8.67;;
15699;SDS011;7950;42.744;23.174;2022-10-17T00:25:03;9.27;;;7.60;;
15699;SDS011;7950;42.744;23.174;2022-10-17T00:27:33;9.47;;;7.80;;
15699;SDS011;7950;42.744;23.174;2022-10-17T00:30:06;12.30;;;7.83;;
15699;SDS011;7950;42.744;23.174;2022-10-17T00:32:37;10.70;;;8.03;;
15699;SDS011;7950;42.744;23.174;2022-10-17T00:35:06;11.20;;;7.87;;
15699;SDS011;7950;42.744;23.174;2022-10-17T00:37:45;9.40;;;7.93;;
15699;SDS011;7950;42.744;23.174;2022-10-17T00:40:13;10.83;;;7.20;;
15699;SDS011;7950;42.744;23.174;2022-10-17T00:42:51;9.20;;;7.43;;
15699;SDS011;7950;42.744;23.174;2022-10-17T00:45:23;11.50;;;8.10;;
15699;SDS011;7950;42.744;23.174;2022-10-17T00:47:55;10.07;;;7.50;;
15699;SDS011;7950;42.744;23.174;2022-10-17T00:50:28;9.00;;;7.70;;
15699;SDS011;7950;42.744;23.174;2022-10-17T00:52:58;10.17;;;7.03;;
15699;SDS011;7950;42.744;23.174;2022-10-17T00:55:29;10.53;;;7.43;;
15699;SDS011;7950;42.744;23.174;2022-10-17T00:58:01;10.27;;;7.80;;
15699;SDS011;7950;42.744;23.174;2022-10-17T01:00:32;10.40;;;7.50;;
15699;SDS011;7950;42.744;23.174;2022-10-17T01:03:02;10.47;;;7.20;;
15699;SDS011;7950;42.744;23.174;2022-10-17T01:05:31;9.63;;;7.23;;
15699;SDS011;7950;42.744;23.174;2022-10-17T01:08:00;11.10;;;7.80;;
15699;SDS011;7950;42.744;23.174;2022-10-17T01:10:30;11.33;;;6.87;;
15699;SDS011;7950;42.744;23.174;2022-10-17T01:13:05;8.33;;;7.03;;
15699;SDS011;7950;42.744;23.174;2022-10-17T01:15:43;9.00;;;7.00;;
15699;SDS011;7950;42.744;23.174;2022-10-17T01:18:24;10.13;;;8.07;;
15699;SDS011;7950;42.744;23.174;2022-10-17T01:27:10;8.20;;;5.97;;
15699;SDS011;7950;42.744;23.174;2022-10-17T01:30:02;8.17;;;6.97;;
15699;SDS011;7950;42.744;23.174;2022-10-17T01:32:53;8.00;;;6.73;;
15699;SDS011;7950;42.744;23.174;2022-10-17T01:35:25;7.77;;;6.70;;
15699;SDS011;7950;42.744;23.174;2022-10-17T01:37:58;9.63;;;6.77;;
15699;SDS011;7950;42.744;23.174;2022-10-17T01:40:36;7.93;;;6.57;;
15699;SDS011;7950;42.744;23.174;2022-10-17T01:43:10;8.30;;;7.17;;
15699;SDS011;7950;42.744;23.174;2022-10-17T01:45:44;8.83;;;6.60;;
15699;SDS011;7950;42.744;23.174;2022-10-17T01:48:19;10.03;;;7.10;;
15699;SDS011;7950;42.744;23.174;2022-10-17T01:50:52;9.10;;;6.73;;
15699;SDS011;7950;42.744;23.174;2022-10-17T01:53:27;9.43;;;7.20;;
15699;SDS011;7950;42.744;23.174;2022-10-17T01:56:05;9.37;;;7.23;;
15699;SDS011;7950;42.744;23.174;2022-10-17T01:58:38;8.80;;;6.80;;
15699;SDS011;7950;42.744;23.174;2022-10-17T02:01:16;9.63;;;7.00;;
15699;SDS011;7950;42.744;23.174;2022-10-17T02:03:47;10.80;;;7.37;;
15699;SDS011;7950;42.744;23.174;2022-10-17T02:06:18;9.57;;;7.53;;
15699;SDS011;7950;42.744;23.174;2022-10-17T02:08:47;11.40;;;7.20;;
15699;SDS011;7950;42.744;23.174;2022-10-17T02:11:17;11.33;;;7.87;;
15699;SDS011;7950;42.744;23.174;2022-10-17T02:16:48;13.40;;;8.67;;
15699;SDS011;7950;42.744;23.174;2022-10-17T02:22:20;10.43;;;7.90;;
15699;SDS011;7950;42.744;23.174;2022-10-17T02:24:58;9.37;;;7.80;;
15699;SDS011;7950;42.744;23.174;2022-10-17T02:27:37;11.77;;;7.80;;
15699;SDS011;7950;42.744;23.174;2022-10-17T02:30:11;10.13;;;7.53;;
15699;SDS011;7950;42.744;23.174;2022-10-17T02:32:43;9.03;;;6.90;;
15699;SDS011;7950;42.744;23.174;2022-10-17T02:35:18;9.67;;;6.80;;
15699;SDS011;7950;42.744;23.174;2022-10-17T02:37:49;8.87;;;6.97;;
15699;SDS011;7950;42.744;23.174;2022-10-17T02:40:19;8.73;;;6.37;;
15699;SDS011;7950;42.744;23.174;2022-10-17T02:42:51;8.63;;;6.87;;
15699;SDS011;7950;42.744;23.174;2022-10-17T02:45:22;8.27;;;7.10;;
15699;SDS011;7950;42.744;23.174;2022-10-17T02:47:54;7.93;;;6.77;;
15699;SDS011;7950;42.744;23.174;2022-10-17T02:50:30;8.63;;;7.03;;
15699;SDS011;7950;42.744;23.174;2022-10-17T02:53:07;10.90;;;6.83;;
15699;SDS011;7950;42.744;23.174;2022-10-17T02:55:42;6.67;;;5.97;;
15699;SDS011;7950;42.744;23.174;2022-10-17T02:58:17;10.77;;;6.90;;
15699;SDS011;7950;42.744;23.174;2022-10-17T03:00:49;11.20;;;6.77;;
15699;SDS011;7950;42.744;23.174;2022-10-17T03:03:20;9.67;;;6.83;;
15699;SDS011;7950;42.744;23.174;2022-10-17T03:05:51;9.47;;;6.80;;
15699;SDS011;7950;42.744;23.174;2022-10-17T03:08:20;10.00;;;7.57;;
15699;SDS011;7950;42.744;23.174;2022-10-17T03:10:49;10.23;;;6.77;;
15699;SDS011;7950;42.744;23.174;2022-10-17T03:13:18;8.40;;;7.17;;
15699;SDS011;7950;42.744;23.174;2022-10-17T03:15:47;8.43;;;7.00;;
15699;SDS011;7950;42.744;23.174;2022-10-17T03:18:15;12.77;;;7.17;;
15699;SDS011;7950;42.744;23.174;2022-10-17T03:20:44;9.37;;;7.07;;
15699;SDS011;7950;42.744;23.174;2022-10-17T03:23:13;10.90;;;7.17;;
15699;SDS011;7950;42.744;23.174;2022-10-17T03:25:42;8.73;;;6.40;;
15699;SDS011;7950;42.744;23.174;2022-10-17T03:31:13;11.07;;;6.83;;
15699;SDS011;7950;42.744;23.174;2022-10-17T03:33:43;9.07;;;7.30;;
15699;SDS011;7950;42.744;23.174;2022-10-17T03:36:12;8.80;;;6.93;;
15699;SDS011;7950;42.744;23.174;2022-10-17T03:38:46;8.60;;;7.00;;
15699;SDS011;7950;42.744;23.174;2022-10-17T03:41:15;10.23;;;6.97;;
15699;SDS011;7950;42.744;23.174;2022-10-17T03:43:43;10.37;;;6.77;;
15699;SDS011;7950;42.744;23.174;2022-10-17T03:46:12;9.53;;;6.90;;
15699;SDS011;7950;42.744;23.174;2022-10-17T03:48:40;10.17;;;7.07;;
15699;SDS011;7950;42.744;23.174;2022-10-17T03:51:21;10.93;;;7.33;;
15699;SDS011;7950;42.744;23.174;2022-10-17T03:53:51;10.73;;;7.20;;
15699;SDS011;7950;42.744;23.174;2022-10-17T03:56:20;10.17;;;7.77;;
15699;SDS011;7950;42.744;23.174;2022-10-17T03:58:50;11.20;;;6.97;;
15699;SDS011;7950;42.744;23.174;2022-10-17T04:01:18;9.43;;;6.90;;
15699;SDS011;7950;42.744;23.174;2022-10-17T04:03:48;9.67;;;7.43;;
15699;SDS011;7950;42.744;23.174;2022-10-17T04:06:18;10.63;;;6.37;;
15699;SDS011;7950;42.744;23.174;2022-10-17T04:08:47;10.67;;;7.17;;
15699;SDS011;7950;42.744;23.174;2022-10-17T04:11:18;13.50;;;7.57;;
15699;SDS011;7950;42.744;23.174;2022-10-17T04:13:51;11.07;;;7.33;;
15699;SDS011;7950;42.744;23.174;2022-10-17T04:16:20;11.10;;;7.00;;
15699;SDS011;7950;42.744;23.174;2022-10-17T04:21:43;11.37;;;7.33;;
15699;SDS011;7950;42.744;23.174;2022-10-17T04:24:12;9.97;;;7.00;;
15699;SDS011;7950;42.744;23.174;2022-10-17T04:26:42;11.37;;;8.40;;
15699;SDS011;7950;42.744;23.174;2022-10-17T04:29:11;10.43;;;7.17;;
15699;SDS011;7950;42.744;23.174;2022-10-17T04:31:39;8.97;;;7.10;;
15699;SDS011;7950;42.744;23.174;2022-10-17T04:37:01;10.97;;;6.67;;
15699;SDS011;7950;42.744;23.174;2022-10-17T04:39:29;9.47;;;7.20;;
15699;SDS011;7950;42.744;23.174;2022-10-17T04:41:59;8.07;;;6.70;;
15699;SDS011;7950;42.744;23.174;2022-10-17T04:44:28;10.27;;;7.30;;
15699;SDS011;7950;42.744;23.174;2022-10-17T04:46:59;9.60;;;6.73;;
15699;SDS011;7950;42.744;23.174;2022-10-17T04:49:27;8.10;;;6.90;;
15699;SDS011;7950;42.744;23.174;2022-10-17T04:51:56;9.27;;;6.83;;
15699;SDS011;7950;42.744;23.174;2022-10-17T04:54:24;10.37;;;7.13;;
15699;SDS011;7950;42.744;23.174;2022-10-17T04:56:53;9.33;;;7.00;;
15699;SDS011;7950;42.744;23.174;2022-10-17T04:59:23;7.90;;;6.53;;
15699;SDS011;7950;42.744;23.174;2022-10-17T05:01:52;8.37;;;7.07;;
15699;SDS011;7950;42.744;23.174;2022-10-17T05:04:20;10.13;;;6.63;;
15699;SDS011;7950;42.744;23.174;2022-10-17T05:06:50;8.83;;;7.10;;
15699;SDS011;7950;42.744;23.174;2022-10-17T05:09:18;10.50;;;7.47;;
15699;SDS011;7950;42.744;23.174;2022-10-17T05:11:47;9.93;;;7.30;;
15699;SDS011;7950;42.744;23.174;2022-10-17T05:14:15;10.83;;;7.57;;
15699;SDS011;7950;42.744;23.174;2022-10-17T05:16:45;9.27;;;7.33;;
15699;SDS011;7950;42.744;23.174;2022-10-17T05:19:13;10.63;;;7.53;;
15699;SDS011;7950;42.744;23.174;2022-10-17T05:21:42;9.43;;;6.93;;
15699;SDS011;7950;42.744;23.174;2022-10-17T05:24:12;8.77;;;7.13;;
15699;SDS011;7950;42.744;23.174;2022-10-17T05:26:41;9.23;;;6.73;;
15699;SDS011;7950;42.744;23.174;2022-10-17T05:29:10;8.33;;;6.83;;
15699;SDS011;7950;42.744;23.174;2022-10-17T05:31:38;9.53;;;7.00;;
15699;SDS011;7950;42.744;23.174;2022-10-17T05:34:08;9.07;;;6.57;;
15699;SDS011;7950;42.744;23.174;2022-10-17T05:36:39;10.60;;;7.57;;
15699;SDS011;7950;42.744;23.174;2022-10-17T05:39:08;9.83;;;7.57;;
15699;SDS011;7950;42.744;23.174;2022-10-17T05:41:38;11.23;;;7.23;;
15699;SDS011;7950;42.744;23.174;2022-10-17T05:44:07;10.20;;;7.13;;
15699;SDS011;7950;42.744;23.174;2022-10-17T05:46:39;9.23;;;7.80;;
15699;SDS011;7950;42.744;23.174;2022-10-17T05:49:09;10.27;;;7.17;;
15699;SDS011;7950;42.744;23.174;2022-10-17T05:51:57;9.73;;;8.17;;
15699;SDS011;7950;42.744;23.174;2022-10-17T05:54:26;10.47;;;8.40;;
15699;SDS011;7950;42.744;23.174;2022-10-17T05:56:54;9.03;;;7.80;;
15699;SDS011;7950;42.744;23.174;2022-10-17T05:59:24;9.37;;;7.43;;
15699;SDS011;7950;42.744;23.174;2022-10-17T06:01:53;9.60;;;7.40;;
15699;SDS011;7950;42.744;23.174;2022-10-17T06:16:55;10.30;;;7.50;;
15699;SDS011;7950;42.744;23.174;2022-10-17T06:19:24;10.30;;;7.13;;
15699;SDS011;7950;42.744;23.174;2022-10-17T06:21:53;9.93;;;7.30;;
15699;SDS011;7950;42.744;23.174;2022-10-17T06:24:22;8.10;;;6.73;;
15699;SDS011;7950;42.744;23.174;2022-10-17T06:26:50;9.03;;;7.17;;
15699;SDS011;7950;42.744;23.174;2022-10-17T06:29:19;9.43;;;7.50;;
15699;SDS011;7950;42.744;23.174;2022-10-17T06:31:48;9.27;;;7.87;;
15699;SDS011;7950;42.744;23.174;2022-10-17T06:34:18;13.73;;;8.87;;
15699;SDS011;7950;42.744;23.174;2022-10-17T06:36:47;11.93;;;8.23;;
15699;SDS011;7950;42.744;23.174;2022-10-17T06:39:15;9.07;;;7.33;;
15699;SDS011;7950;42.744;23.174;2022-10-17T06:41:44;9.20;;;7.30;;
15699;SDS011;7950;42.744;23.174;2022-10-17T06:44:13;10.70;;;8.70;;
15699;SDS011;7950;42.744;23.174;2022-10-17T06:46:43;12.47;;;8.63;;
15699;SDS011;7950;42.744;23.174;2022-10-17T06:49:12;9.10;;;7.57;;
15699;SDS011;7950;42.744;23.174;2022-10-17T06:51:42;15.10;;;8.83;;
15699;SDS011;7950;42.744;23.174;2022-10-17T06:54:10;12.03;;;8.70;;
15699;SDS011;7950;42.744;23.174;2022-10-17T06:56:39;12.60;;;8.40;;
15699;SDS011;7950;42.744;23.174;2022-10-17T06:59:08;8.93;;;6.30;;
15699;SDS011;7950;42.744;23.174;2022-10-17T07:01:37;10.40;;;7.20;;
15699;SDS011;7950;42.744;23.174;2022-10-17T07:04:11;10.20;;;6.90;;
15699;SDS011;7950;42.744;23.174;2022-10-17T07:06:41;9.30;;;7.13;;
15699;SDS011;7950;42.744;23.174;2022-10-17T07:09:10;8.60;;;7.30;;
15699;SDS011;7950;42.744;23.174;2022-10-17T07:11:39;8.00;;;7.13;;
15699;SDS011;7950;42.744;23.174;2022-10-17T07:14:08;7.83;;;7.03;;
15699;SDS011;7950;42.744;23.174;2022-10-17T07:16:37;10.00;;;7.57;;
15699;SDS011;7950;42.744;23.174;2022-10-17T07:19:05;9.20;;;7.50;;
15699;SDS011;7950;42.744;23.174;2022-10-17T07:21:35;10.80;;;8.40;;
15699;SDS011;7950;42.744;23.174;2022-10-17T07:24:06;21.67;;;8.30;;
15699;SDS011;7950;42.744;23.174;2022-10-17T07:26:34;9.17;;;7.63;;
15699;SDS011;7950;42.744;23.174;2022-10-17T07:29:03;8.90;;;7.87;;
15699;SDS011;7950;42.744;23.174;2022-10-17T07:31:33;10.20;;;7.83;;
15699;SDS011;7950;42.744;23.174;2022-10-17T07:34:01;10.17;;;8.00;;
15699;SDS011;7950;42.744;23.174;2022-10-17T07:36:30;11.00;;;7.90;;
15699;SDS011;7950;42.744;23.174;2022-10-17T07:38:59;10.30;;;7.63;;
15699;SDS011;7950;42.744;23.174;2022-10-17T07:41:29;10.03;;;7.60;;
15699;SDS011;7950;42.744;23.174;2022-10-17T07:43:57;10.73;;;7.90;;
15699;SDS011;7950;42.744;23.174;2022-10-17T07:46:26;16.67;;;7.63;;
15699;SDS011;7950;42.744;23.174;2022-10-17T07:48:55;11.93;;;7.77;;
15699;SDS011;7950;42.744;23.174;2022-10-17T07:51:23;11.13;;;7.33;;
15699;SDS011;7950;42.744;23.174;2022-10-17T07:53:53;11.20;;;7.87;;
15699;SDS011;7950;42.744;23.174;2022-10-17T07:56:22;15.83;;;8.23;;
15699;SDS011;7950;42.744;23.174;2022-10-17T07:58:52;7.87;;;6.77;;
15699;SDS011;7950;42.744;23.174;2022-10-17T08:01:22;10.03;;;7.23;;
15699;SDS011;7950;42.744;23.174;2022-10-17T08:03:51;10.87;;;7.47;;
15699;SDS011;7950;42.744;23.174;2022-10-17T08:06:20;9.07;;;6.83;;
15699;SDS011;7950;42.744;23.174;2022-10-17T08:08:48;8.10;;;7.30;;
15699;SDS011;7950;42.744;23.174;2022-10-17T08:11:17;15.37;;;7.83;;
15699;SDS011;7950;42.744;23.174;2022-10-17T08:13:46;9.87;;;7.30;;
15699;SDS011;7950;42.744;23.174;2022-10-17T08:16:16;10.23;;;7.33;;
15699;SDS011;7950;42.744;23.174;2022-10-17T08:18:45;14.30;;;8.10;;
15699;SDS011;7950;42.744;23.174;2022-10-17T08:21:13;10.93;;;7.73;;
15699;SDS011;7950;42.744;23.174;2022-10-17T08:23:42;10.33;;;7.30;;
15699;SDS011;7950;42.744;23.174;2022-10-17T08:26:10;9.90;;;7.70;;
15699;SDS011;7950;42.744;23.174;2022-10-17T08:28:42;8.63;;;6.63;;
15699;SDS011;7950;42.744;23.174;2022-10-17T08:31:12;10.27;;;7.17;;
15699;SDS011;7950;42.744;23.174;2022-10-17T08:33:44;8.50;;;6.17;;
15699;SDS011;7950;42.744;23.174;2022-10-17T08:36:15;7.47;;;6.67;;
15699;SDS011;7950;42.744;23.174;2022-10-17T08:38:46;10.53;;;6.03;;
15699;SDS011;7950;42.744;23.174;2022-10-17T08:41:23;9.53;;;5.90;;
15699;SDS011;7950;42.744;23.174;2022-10-17T08:44:18;8.40;;;6.00;;
15699;SDS011;7950;42.744;23.174;2022-10-17T08:47:04;6.83;;;5.80;;
15699;SDS011;7950;42.744;23.174;2022-10-17T08:49:41;6.30;;;5.50;;
15699;SDS011;7950;42.744;23.174;2022-10-17T08:52:18;8.50;;;5.87;;
15699;SDS011;7950;42.744;23.174;2022-10-17T08:54:56;6.23;;;5.63;;
15699;SDS011;7950;42.744;23.174;2022-10-17T08:57:25;11.57;;;5.50;;
15699;SDS011;7950;42.744;23.174;2022-10-17T08:59:54;6.60;;;5.63;;
15699;SDS011;7950;42.744;23.174;2022-10-17T09:02:33;8.27;;;5.93;;
15699;SDS011;7950;42.744;23.174;2022-10-17T09:05:23;6.97;;;5.90;;
15699;SDS011;7950;42.744;23.174;2022-10-17T09:11:09;7.57;;;4.80;;
15699;SDS011;7950;42.744;23.174;2022-10-17T09:14:00;7.13;;;4.97;;
15699;SDS011;7950;42.744;23.174;2022-10-17T09:16:53;6.07;;;4.90;;
15699;SDS011;7950;42.744;23.174;2022-10-17T09:19:36;6.47;;;4.97;;
15699;SDS011;7950;42.744;23.174;2022-10-17T09:22:11;7.07;;;4.80;;
15699;SDS011;7950;42.744;23.174;2022-10-17T09:24:45;5.80;;;4.63;;
15699;SDS011;7950;42.744;23.174;2022-10-17T09:27:21;6.57;;;4.90;;
15699;SDS011;7950;42.744;23.174;2022-10-17T09:29:54;9.00;;;4.23;;
15699;SDS011;7950;42.744;23.174;2022-10-17T09:33:08;10.10;;;4.23;;
15699;SDS011;7950;42.744;23.174;2022-10-17T09:36:01;7.67;;;3.83;;
15699;SDS011;7950;42.744;23.174;2022-10-17T09:38:37;7.10;;;3.87;;
15699;SDS011;7950;42.744;23.174;2022-10-17T09:41:12;4.87;;;3.73;;
15699;SDS011;7950;42.744;23.174;2022-10-17T09:44:18;7.20;;;4.20;;
15699;SDS011;7950;42.744;23.174;2022-10-17T09:46:52;6.53;;;4.10;;
15699;SDS011;7950;42.744;23.174;2022-10-17T09:49:35;3.87;;;3.33;;
15699;SDS011;7950;42.744;23.174;2022-10-17T09:52:09;4.87;;;3.60;;
15699;SDS011;7950;42.744;23.174;2022-10-17T09:54:43;4.50;;;3.67;;
15699;SDS011;7950;42.744;23.174;2022-10-17T09:57:15;4.40;;;3.60;;
15699;SDS011;7950;42.744;23.174;2022-10-17T09:59:46;6.83;;;3.60;;
15699;SDS011;7950;42.744;23.174;2022-10-17T10:02:24;4.43;;;3.83;;
15699;SDS011;7950;42.744;23.174;2022-10-17T10:04:56;7.93;;;4.03;;
15699;SDS011;7950;42.744;23.174;2022-10-17T10:07:34;5.37;;;3.67;;
15699;SDS011;7950;42.744;23.174;2022-10-17T10:10:05;6.53;;;3.60;;
15699;SDS011;7950;42.744;23.174;2022-10-17T10:13:03;4.53;;;3.30;;
15699;SDS011;7950;42.744;23.174;2022-10-17T10:15:43;7.47;;;4.07;;
15699;SDS011;7950;42.744;23.174;2022-10-17T10:18:30;10.13;;;4.63;;
15699;SDS011;7950;42.744;23.174;2022-10-17T10:21:03;7.33;;;3.10;;
15699;SDS011;7950;42.744;23.174;2022-10-17T10:23:37;7.40;;;3.53;;
15699;SDS011;7950;42.744;23.174;2022-10-17T10:26:20;6.90;;;3.30;;
15699;SDS011;7950;42.744;23.174;2022-10-17T10:28:53;4.20;;;3.10;;
15699;SDS011;7950;42.744;23.174;2022-10-17T10:31:31;4.13;;;2.77;;
15699;SDS011;7950;42.744;23.174;2022-10-17T10:34:21;3.83;;;2.90;;
15699;SDS011;7950;42.744;23.174;2022-10-17T10:36:55;4.80;;;2.90;;
15699;SDS011;7950;42.744;23.174;2022-10-17T10:39:39;3.40;;;2.47;;
15699;SDS011;7950;42.744;23.174;2022-10-17T10:42:22;3.90;;;3.20;;
15699;SDS011;7950;42.744;23.174;2022-10-17T10:44:58;4.43;;;2.80;;
15699;SDS011;7950;42.744;23.174;2022-10-17T10:48:02;18.57;;;3.43;;
15699;SDS011;7950;42.744;23.174;2022-10-17T10:50:48;4.83;;;2.50;;
15699;SDS011;7950;42.744;23.174;2022-10-17T10:53:37;4.03;;;2.40;;
15699;SDS011;7950;42.744;23.174;2022-10-17T10:56:35;4.40;;;2.77;;
15699;SDS011;7950;42.744;23.174;2022-10-17T10:59:10;3.33;;;3.03;;
15699;SDS011;7950;42.744;23.174;2022-10-17T11:01:46;5.97;;;2.50;;
15699;SDS011;7950;42.744;23.174;2022-10-17T11:04:27;2.60;;;2.40;;
15699;SDS011;7950;42.744;23.174;2022-10-17T11:07:03;4.80;;;2.53;;
15699;SDS011;7950;42.744;23.174;2022-10-17T11:09:43;11.87;;;3.07;;
15699;SDS011;7950;42.744;23.174;2022-10-17T11:12:22;6.17;;;2.73;;
15699;SDS011;7950;42.744;23.174;2022-10-17T11:14:56;4.40;;;3.30;;
15699;SDS011;7950;42.744;23.174;2022-10-17T11:17:35;3.77;;;3.20;;
15699;SDS011;7950;42.744;23.174;2022-10-17T11:20:13;11.67;;;3.20;;
15699;SDS011;7950;42.744;23.174;2022-10-17T11:22:51;8.73;;;3.00;;
15699;SDS011;7950;42.744;23.174;2022-10-17T11:25:30;6.13;;;3.20;;
15699;SDS011;7950;42.744;23.174;2022-10-17T11:28:08;8.67;;;3.17;;
15699;SDS011;7950;42.744;23.174;2022-10-17T11:30:53;3.87;;;2.60;;
15699;SDS011;7950;42.744;23.174;2022-10-17T11:33:33;7.03;;;2.93;;
15699;SDS011;7950;42.744;23.174;2022-10-17T11:36:12;9.23;;;3.23;;
15699;SDS011;7950;42.744;23.174;2022-10-17T11:38:46;7.53;;;2.90;;
15699;SDS011;7950;42.744;23.174;2022-10-17T11:41:21;4.83;;;2.63;;
15699;SDS011;7950;42.744;23.174;2022-10-17T11:44:07;4.57;;;3.23;;
15699;SDS011;7950;42.744;23.174;2022-10-17T11:46:48;5.33;;;2.63;;
15699;SDS011;7950;42.744;23.174;2022-10-17T11:49:33;4.07;;;2.77;;
15699;SDS011;7950;42.744;23.174;2022-10-17T11:52:22;5.60;;;3.00;;
15699;SDS011;7950;42.744;23.174;2022-10-17T11:55:46;5.57;;;3.30;;
15699;SDS011;7950;42.744;23.174;2022-10-17T11:58:26;6.13;;;3.20;;
15699;SDS011;7950;42.744;23.174;2022-10-17T12:01:08;2.97;;;2.67;;
15699;SDS011;7950;42.744;23.174;2022-10-17T12:04:10;3.27;;;2.47;;
15699;SDS011;7950;42.744;23.174;2022-10-17T12:06:57;3.97;;;2.60;;
15699;SDS011;7950;42.744;23.174;2022-10-17T12:09:39;6.63;;;3.03;;
15699;SDS011;7950;42.744;23.174;2022-10-17T12:12:22;5.63;;;2.67;;
15699;SDS011;7950;42.744;23.174;2022-10-17T12:14:54;3.47;;;2.70;;
15699;SDS011;7950;42.744;23.174;2022-10-17T12:17:59;6.50;;;3.00;;
15699;SDS011;7950;42.744;23.174;2022-10-17T12:20:33;3.70;;;2.80;;
15699;SDS011;7950;42.744;23.174;2022-10-17T12:25:53;3.67;;;2.73;;
15699;SDS011;7950;42.744;23.174;2022-10-17T12:28:30;3.63;;;3.07;;
15699;SDS011;7950;42.744;23.174;2022-10-17T12:31:00;4.60;;;2.80;;
15699;SDS011;7950;42.744;23.174;2022-10-17T12:36:44;3.40;;;2.83;;
15699;SDS011;7950;42.744;23.174;2022-10-17T12:42:31;4.57;;;2.73;;
15699;SDS011;7950;42.744;23.174;2022-10-17T12:51:28;2.90;;;2.70;;
15699;SDS011;7950;42.744;23.174;2022-10-17T12:54:51;5.20;;;2.80;;
15699;SDS011;7950;42.744;23.174;2022-10-17T12:57:46;4.03;;;2.90;;
15699;SDS011;7950;42.744;23.174;2022-10-17T13:03:40;3.03;;;2.50;;
15699;SDS011;7950;42.744;23.174;2022-10-17T13:06:14;3.77;;;3.00;;
15699;SDS011;7950;42.744;23.174;2022-10-17T13:08:51;6.87;;;2.53;;
15699;SDS011;7950;42.744;23.174;2022-10-17T13:14:26;7.27;;;2.80;;
15699;SDS011;7950;42.744;23.174;2022-10-17T13:16:59;5.37;;;2.73;;
15699;SDS011;7950;42.744;23.174;2022-10-17T13:19:30;3.80;;;2.40;;
15699;SDS011;7950;42.744;23.174;2022-10-17T13:22:10;4.43;;;2.60;;
15699;SDS011;7950;42.744;23.174;2022-10-17T13:24:45;5.43;;;2.73;;
15699;SDS011;7950;42.744;23.174;2022-10-17T13:27:25;2.83;;;2.53;;
15699;SDS011;7950;42.744;23.174;2022-10-17T13:29:57;3.03;;;2.50;;
15699;SDS011;7950;42.744;23.174;2022-10-17T13:32:33;8.40;;;2.60;;
15699;SDS011;7950;42.744;23.174;2022-10-17T13:35:06;2.97;;;2.57;;
15699;SDS011;7950;42.744;23.174;2022-10-17T13:37:38;3.53;;;2.70;;
15699;SDS011;7950;42.744;23.174;2022-10-17T13:40:15;4.17;;;2.50;;
15699;SDS011;7950;42.744;23.174;2022-10-17T13:43:10;8.27;;;5.17;;
15699;SDS011;7950;42.744;23.174;2022-10-17T13:45:45;3.40;;;3.10;;
15699;SDS011;7950;42.744;23.174;2022-10-17T13:48:17;4.67;;;2.87;;
15699;SDS011;7950;42.744;23.174;2022-10-17T13:50:50;7.90;;;3.70;;
15699;SDS011;7950;42.744;23.174;2022-10-17T13:53:29;11.20;;;3.37;;
15699;SDS011;7950;42.744;23.174;2022-10-17T13:56:02;7.47;;;3.10;;
15699;SDS011;7950;42.744;23.174;2022-10-17T13:58:54;13.30;;;3.43;;
15699;SDS011;7950;42.744;23.174;2022-10-17T14:01:26;5.10;;;2.90;;
15699;SDS011;7950;42.744;23.174;2022-10-17T14:03:57;2.90;;;2.57;;
15699;SDS011;7950;42.744;23.174;2022-10-17T14:06:35;3.23;;;2.60;;
15699;SDS011;7950;42.744;23.174;2022-10-17T14:09:17;10.33;;;3.03;;
15699;SDS011;7950;42.744;23.174;2022-10-17T14:11:59;3.33;;;2.43;;
15699;SDS011;7950;42.744;23.174;2022-10-17T14:17:36;4.23;;;2.73;;
15699;SDS011;7950;42.744;23.174;2022-10-17T14:20:06;15.60;;;3.33;;
15699;SDS011;7950;42.744;23.174;2022-10-17T14:23:04;6.67;;;3.13;;
15699;SDS011;7950;42.744;23.174;2022-10-17T14:26:03;5.43;;;3.20;;
15699;SDS011;7950;42.744;23.174;2022-10-17T14:28:41;5.60;;;3.00;;
15699;SDS011;7950;42.744;23.174;2022-10-17T14:31:23;4.37;;;3.27;;
15699;SDS011;7950;42.744;23.174;2022-10-17T14:34:05;7.27;;;3.40;;
15699;SDS011;7950;42.744;23.174;2022-10-17T14:36:46;5.23;;;3.40;;
15699;SDS011;7950;42.744;23.174;2022-10-17T14:39:19;4.83;;;3.20;;
15699;SDS011;7950;42.744;23.174;2022-10-17T14:41:51;7.13;;;3.67;;
15699;SDS011;7950;42.744;23.174;2022-10-17T14:44:27;5.83;;;3.60;;
15699;SDS011;7950;42.744;23.174;2022-10-17T14:46:58;4.87;;;3.60;;
15699;SDS011;7950;42.744;23.174;2022-10-17T14:49:50;6.90;;;3.53;;
15699;SDS011;7950;42.744;23.174;2022-10-17T14:52:32;4.53;;;3.03;;
15699;SDS011;7950;42.744;23.174;2022-10-17T14:55:20;4.30;;;3.10;;
15699;SDS011;7950;42.744;23.174;2022-10-17T14:57:52;5.20;;;3.13;;
15699;SDS011;7950;42.744;23.174;2022-10-17T15:00:23;4.57;;;3.43;;
15699;SDS011;7950;42.744;23.174;2022-10-17T15:02:53;4.80;;;3.47;;
15699;SDS011;7950;42.744;23.174;2022-10-17T15:05:22;7.30;;;3.40;;
15699;SDS011;7950;42.744;23.174;2022-10-17T15:07:51;4.37;;;3.40;;
15699;SDS011;7950;42.744;23.174;2022-10-17T15:10:26;5.83;;;3.77;;
15699;SDS011;7950;42.744;23.174;2022-10-17T15:12:59;6.67;;;3.63;;
15699;SDS011;7950;42.744;23.174;2022-10-17T15:15:50;3.37;;;3.07;;
15699;SDS011;7950;42.744;23.174;2022-10-17T15:18:19;7.90;;;3.20;;
15699;SDS011;7950;42.744;23.174;2022-10-17T15:20:47;4.23;;;3.27;;
15699;SDS011;7950;42.744;23.174;2022-10-17T15:23:44;7.90;;;3.57;;
15699;SDS011;7950;42.744;23.174;2022-10-17T15:26:13;5.77;;;3.37;;
15699;SDS011;7950;42.744;23.174;2022-10-17T15:28:45;5.27;;;4.03;;
15699;SDS011;7950;42.744;23.174;2022-10-17T15:31:18;5.90;;;4.40;;
15699;SDS011;7950;42.744;23.174;2022-10-17T15:33:49;5.53;;;4.20;;
15699;SDS011;7950;42.744;23.174;2022-10-17T15:36:19;10.23;;;4.93;;
15699;SDS011;7950;42.744;23.174;2022-10-17T15:38:52;8.57;;;4.23;;
15699;SDS011;7950;42.744;23.174;2022-10-17T15:41:23;12.07;;;4.07;;
15699;SDS011;7950;42.744;23.174;2022-10-17T15:43:53;7.73;;;4.57;;
15699;SDS011;7950;42.744;23.174;2022-10-17T15:46:25;21.20;;;12.90;;
15699;SDS011;7950;42.744;23.174;2022-10-17T15:48:55;22.20;;;12.23;;
15699;SDS011;7950;42.744;23.174;2022-10-17T15:51:29;15.77;;;7.37;;
15699;SDS011;7950;42.744;23.174;2022-10-17T15:53:57;8.00;;;6.20;;
15699;SDS011;7950;42.744;23.174;2022-10-17T15:59:24;7.10;;;6.40;;
15699;SDS011;7950;42.744;23.174;2022-10-17T16:02:00;11.57;;;7.97;;
15699;SDS011;7950;42.744;23.174;2022-10-17T16:04:28;9.57;;;7.03;;
15699;SDS011;7950;42.744;23.174;2022-10-17T16:06:57;7.67;;;6.97;;
15699;SDS011;7950;42.744;23.174;2022-10-17T16:09:26;10.17;;;8.70;;
15699;SDS011;7950;42.744;23.174;2022-10-17T16:11:55;9.43;;;6.67;;
15699;SDS011;7950;42.744;23.174;2022-10-17T16:14:23;9.67;;;7.60;;
15699;SDS011;7950;42.744;23.174;2022-10-17T16:16:52;8.33;;;6.77;;
15699;SDS011;7950;42.744;23.174;2022-10-17T16:19:22;13.17;;;7.83;;
15699;SDS011;7950;42.744;23.174;2022-10-17T16:21:52;10.30;;;6.67;;
15699;SDS011;7950;42.744;23.174;2022-10-17T16:24:26;8.37;;;6.83;;
15699;SDS011;7950;42.744;23.174;2022-10-17T16:26:54;9.00;;;6.60;;
15699;SDS011;7950;42.744;23.174;2022-10-17T16:29:23;8.90;;;6.60;;
15699;SDS011;7950;42.744;23.174;2022-10-17T16:31:51;13.50;;;6.70;;
15699;SDS011;7950;42.744;23.174;2022-10-17T16:34:20;10.47;;;7.53;;